sensor_id;sensor_type;location;lat;lon;timestamp;P1;durP1;ratioP1;P2;durP2;ratioP2
76801;SDS011;66403;50.832;10.950;2024-01-27T00:03:44;5.22;;;1.02;;
76801;SDS011;66403;50.832;10.950;2024-01-27T00:08:44;0.90;;;0.50;;
76801;SDS011;66403;50.832;10.950;2024-01-27T00:13:45;2.30;;;0.70;;
76801;SDS011;66403;50.832;10.950;2024-01-27T00:18:45;2.17;;;0.75;;
76801;SDS011;66403;50.832;10.950;2024-01-27T00:23:46;3.42;;;1.17;;
76801;SDS011;66403;50.832;10.950;2024-01-27T00:28:46;10.60;;;0.88;;
76801;SDS011;66403;50.832;10.950;2024-01-27T00:33:47;1.55;;;0.60;;
76801;SDS011;66403;50.832;10.950;2024-01-27T00:38:47;6.70;;;1.15;;
76801;SDS011;66403;50.832;10.950;2024-01-27T00:43:48;1.70;;;0.85;;
76801;SDS011;66403;50.832;10.950;2024-01-27T00:48:48;2.95;;;0.73;;
76801;SDS011;66403;50.832;10.950;2024-01-27T00:53:49;0.85;;;0.52;;
76801;SDS011;66403;50.832;10.950;2024-01-27T00:58:49;6.30;;;1.33;;
76801;SDS011;66403;50.832;10.950;2024-01-27T01:03:49;2.00;;;0.50;;
76801;SDS011;66403;50.832;10.950;2024-01-27T01:08:50;4.72;;;0.70;;
76801;SDS011;66403;50.832;10.950;2024-01-27T01:13:50;1.73;;;0.77;;
76801;SDS011;66403;50.832;10.950;2024-01-27T01:18:51;1.40;;;0.80;;
76801;SDS011;66403;50.832;10.950;2024-01-27T01:23:51;3.28;;;0.93;;
76801;SDS011;66403;50.832;10.950;2024-01-27T01:28:52;5.65;;;1.15;;
76801;SDS011;66403;50.832;10.950;2024-01-27T01:33:53;1.98;;;0.80;;
76801;SDS011;66403;50.832;10.950;2024-01-27T01:38:53;4.15;;;0.75;;
76801;SDS011;66403;50.832;10.950;2024-01-27T01:43:54;4.32;;;0.80;;
76801;SDS011;66403;50.832;10.950;2024-01-27T01:48:54;3.13;;;0.57;;
76801;SDS011;66403;50.832;10.950;2024-01-27T01:53:57;1.60;;;0.90;;
76801;SDS011;66403;50.832;10.950;2024-01-27T01:58:58;2.03;;;0.73;;
76801;SDS011;66403;50.832;10.950;2024-01-27T02:03:59;2.13;;;0.98;;
76801;SDS011;66403;50.832;10.950;2024-01-27T02:08:59;4.25;;;0.95;;
76801;SDS011;66403;50.832;10.950;2024-01-27T02:13:59;1.98;;;0.85;;
76801;SDS011;66403;50.832;10.950;2024-01-27T02:19:01;2.72;;;0.55;;
76801;SDS011;66403;50.832;10.950;2024-01-27T02:24:01;3.55;;;0.50;;
76801;SDS011;66403;50.832;10.950;2024-01-27T02:29:02;5.97;;;1.13;;
76801;SDS011;66403;50.832;10.950;2024-01-27T02:34:03;2.60;;;0.65;;
76801;SDS011;66403;50.832;10.950;2024-01-27T02:39:03;3.92;;;0.80;;
76801;SDS011;66403;50.832;10.950;2024-01-27T02:44:04;5.05;;;0.95;;
76801;SDS011;66403;50.832;10.950;2024-01-27T02:49:05;3.10;;;1.30;;
76801;SDS011;66403;50.832;10.950;2024-01-27T02:54:05;2.15;;;0.60;;
76801;SDS011;66403;50.832;10.950;2024-01-27T02:59:06;7.88;;;0.95;;
76801;SDS011;66403;50.832;10.950;2024-01-27T03:04:06;3.90;;;0.88;;
76801;SDS011;66403;50.832;10.950;2024-01-27T03:09:07;3.47;;;1.33;;
76801;SDS011;66403;50.832;10.950;2024-01-27T03:14:07;4.32;;;1.40;;
76801;SDS011;66403;50.832;10.950;2024-01-27T03:19:08;5.07;;;1.33;;
76801;SDS011;66403;50.832;10.950;2024-01-27T03:24:08;1.08;;;0.60;;
76801;SDS011;66403;50.832;10.950;2024-01-27T03:29:08;9.93;;;2.13;;
76801;SDS011;66403;50.832;10.950;2024-01-27T03:34:09;7.32;;;1.13;;
76801;SDS011;66403;50.832;10.950;2024-01-27T03:39:09;3.45;;;1.23;;
76801;SDS011;66403;50.832;10.950;2024-01-27T03:44:10;5.35;;;1.10;;
76801;SDS011;66403;50.832;10.950;2024-01-27T03:49:10;1.80;;;0.82;;
76801;SDS011;66403;50.832;10.950;2024-01-27T03:54:11;2.80;;;0.63;;
76801;SDS011;66403;50.832;10.950;2024-01-27T03:59:11;2.05;;;0.98;;
76801;SDS011;66403;50.832;10.950;2024-01-27T04:04:12;4.40;;;1.02;;
76801;SDS011;66403;50.832;10.950;2024-01-27T04:09:13;6.60;;;1.75;;
76801;SDS011;66403;50.832;10.950;2024-01-27T04:14:13;1.13;;;0.73;;
76801;SDS011;66403;50.832;10.950;2024-01-27T04:19:14;1.20;;;0.63;;
76801;SDS011;66403;50.832;10.950;2024-01-27T04:24:14;2.05;;;1.02;;
76801;SDS011;66403;50.832;10.950;2024-01-27T04:29:14;5.65;;;1.23;;
76801;SDS011;66403;50.832;10.950;2024-01-27T04:34:15;2.90;;;0.55;;
76801;SDS011;66403;50.832;10.950;2024-01-27T04:39:15;1.00;;;0.85;;
76801;SDS011;66403;50.832;10.950;2024-01-27T04:44:16;6.10;;;1.23;;
76801;SDS011;66403;50.832;10.950;2024-01-27T04:49:16;1.73;;;0.80;;
76801;SDS011;66403;50.832;10.950;2024-01-27T04:54:17;4.75;;;0.90;;
76801;SDS011;66403;50.832;10.950;2024-01-27T04:59:17;2.25;;;0.68;;
76801;SDS011;66403;50.832;10.950;2024-01-27T05:04:18;6.38;;;1.05;;
76801;SDS011;66403;50.832;10.950;2024-01-27T05:09:18;6.93;;;1.38;;
76801;SDS011;66403;50.832;10.950;2024-01-27T05:14:19;5.22;;;0.98;;
76801;SDS011;66403;50.832;10.950;2024-01-27T05:19:19;4.05;;;1.23;;
76801;SDS011;66403;50.832;10.950;2024-01-27T05:24:21;5.97;;;1.02;;
76801;SDS011;66403;50.832;10.950;2024-01-27T05:29:21;4.65;;;1.20;;
76801;SDS011;66403;50.832;10.950;2024-01-27T05:34:22;6.53;;;1.05;;
76801;SDS011;66403;50.832;10.950;2024-01-27T05:39:22;3.70;;;1.30;;
76801;SDS011;66403;50.832;10.950;2024-01-27T05:44:23;3.78;;;1.17;;
76801;SDS011;66403;50.832;10.950;2024-01-27T05:49:23;1.85;;;1.00;;
76801;SDS011;66403;50.832;10.950;2024-01-27T05:54:24;3.67;;;1.27;;
76801;SDS011;66403;50.832;10.950;2024-01-27T05:59:24;5.88;;;1.30;;
76801;SDS011;66403;50.832;10.950;2024-01-27T06:04:25;1.98;;;1.27;;
76801;SDS011;66403;50.832;10.950;2024-01-27T06:09:25;1.92;;;1.05;;
76801;SDS011;66403;50.832;10.950;2024-01-27T06:14:26;3.92;;;1.08;;
76801;SDS011;66403;50.832;10.950;2024-01-27T06:19:26;3.42;;;0.80;;
76801;SDS011;66403;50.832;10.950;2024-01-27T06:24:27;5.47;;;2.65;;
76801;SDS011;66403;50.832;10.950;2024-01-27T06:29:27;6.85;;;1.88;;
76801;SDS011;66403;50.832;10.950;2024-01-27T06:34:29;3.60;;;1.52;;
76801;SDS011;66403;50.832;10.950;2024-01-27T06:39:29;5.65;;;1.98;;
76801;SDS011;66403;50.832;10.950;2024-01-27T06:44:30;5.93;;;1.50;;
76801;SDS011;66403;50.832;10.950;2024-01-27T06:49:30;1.45;;;1.20;;
76801;SDS011;66403;50.832;10.950;2024-01-27T06:54:30;3.35;;;1.35;;
76801;SDS011;66403;50.832;10.950;2024-01-27T06:59:31;4.20;;;1.30;;
76801;SDS011;66403;50.832;10.950;2024-01-27T07:04:31;4.82;;;1.35;;
76801;SDS011;66403;50.832;10.950;2024-01-27T07:09:32;6.40;;;1.75;;
76801;SDS011;66403;50.832;10.950;2024-01-27T07:14:32;2.45;;;1.30;;
76801;SDS011;66403;50.832;10.950;2024-01-27T07:19:33;2.60;;;1.48;;
76801;SDS011;66403;50.832;10.950;2024-01-27T07:24:33;5.22;;;1.65;;
76801;SDS011;66403;50.832;10.950;2024-01-27T07:29:34;4.78;;;1.67;;
76801;SDS011;66403;50.832;10.950;2024-01-27T07:34:34;5.90;;;1.73;;
76801;SDS011;66403;50.832;10.950;2024-01-27T07:39:35;3.70;;;1.38;;
76801;SDS011;66403;50.832;10.950;2024-01-27T07:44:35;6.82;;;1.70;;
76801;SDS011;66403;50.832;10.950;2024-01-27T07:49:36;3.95;;;1.23;;
76801;SDS011;66403;50.832;10.950;2024-01-27T07:54:36;6.10;;;2.65;;
76801;SDS011;66403;50.832;10.950;2024-01-27T07:59:39;4.40;;;1.60;;
76801;SDS011;66403;50.832;10.950;2024-01-27T08:04:39;5.28;;;1.45;;
76801;SDS011;66403;50.832;10.950;2024-01-27T08:09:40;5.15;;;1.27;;
76801;SDS011;66403;50.832;10.950;2024-01-27T08:14:40;6.13;;;1.88;;
76801;SDS011;66403;50.832;10.950;2024-01-27T08:19:41;5.70;;;1.52;;
76801;SDS011;66403;50.832;10.950;2024-01-27T08:24:41;6.57;;;1.17;;
76801;SDS011;66403;50.832;10.950;2024-01-27T08:29:42;2.45;;;1.80;;
76801;SDS011;66403;50.832;10.950;2024-01-27T08:34:42;4.80;;;1.15;;
76801;SDS011;66403;50.832;10.950;2024-01-27T08:39:43;7.65;;;1.33;;
76801;SDS011;66403;50.832;10.950;2024-01-27T08:44:43;10.18;;;1.88;;
76801;SDS011;66403;50.832;10.950;2024-01-27T08:49:44;8.18;;;2.30;;
76801;SDS011;66403;50.832;10.950;2024-01-27T08:54:44;6.68;;;1.55;;
76801;SDS011;66403;50.832;10.950;2024-01-27T08:59:45;2.88;;;0.90;;
76801;SDS011;66403;50.832;10.950;2024-01-27T09:04:45;3.00;;;1.13;;
76801;SDS011;66403;50.832;10.950;2024-01-27T09:09:46;8.13;;;2.28;;
76801;SDS011;66403;50.832;10.950;2024-01-27T09:14:46;6.25;;;2.15;;
76801;SDS011;66403;50.832;10.950;2024-01-27T09:19:47;5.80;;;1.30;;
76801;SDS011;66403;50.832;10.950;2024-01-27T09:24:47;6.13;;;1.70;;
76801;SDS011;66403;50.832;10.950;2024-01-27T09:29:47;7.25;;;1.67;;
76801;SDS011;66403;50.832;10.950;2024-01-27T09:34:48;10.20;;;2.05;;
76801;SDS011;66403;50.832;10.950;2024-01-27T09:39:48;4.10;;;1.33;;
76801;SDS011;66403;50.832;10.950;2024-01-27T09:44:49;3.80;;;1.33;;
76801;SDS011;66403;50.832;10.950;2024-01-27T09:49:50;8.55;;;1.80;;
76801;SDS011;66403;50.832;10.950;2024-01-27T09:54:51;2.95;;;1.42;;
76801;SDS011;66403;50.832;10.950;2024-01-27T09:59:52;5.20;;;1.45;;
76801;SDS011;66403;50.832;10.950;2024-01-27T10:04:53;16.63;;;7.95;;
76801;SDS011;66403;50.832;10.950;2024-01-27T10:09:54;6.28;;;1.52;;
76801;SDS011;66403;50.832;10.950;2024-01-27T10:14:54;6.18;;;2.30;;
76801;SDS011;66403;50.832;10.950;2024-01-27T10:20:01;6.70;;;1.70;;
76801;SDS011;66403;50.832;10.950;2024-01-27T10:25:03;4.97;;;1.38;;
76801;SDS011;66403;50.832;10.950;2024-01-27T10:30:04;6.95;;;1.52;;
76801;SDS011;66403;50.832;10.950;2024-01-27T10:35:07;8.55;;;1.75;;
76801;SDS011;66403;50.832;10.950;2024-01-27T10:40:08;6.20;;;1.80;;
76801;SDS011;66403;50.832;10.950;2024-01-27T10:45:09;10.20;;;1.75;;
76801;SDS011;66403;50.832;10.950;2024-01-27T10:50:11;3.08;;;2.20;;
76801;SDS011;66403;50.832;10.950;2024-01-27T10:55:11;5.50;;;1.60;;
76801;SDS011;66403;50.832;10.950;2024-01-27T11:00:12;6.65;;;2.38;;
76801;SDS011;66403;50.832;10.950;2024-01-27T11:05:14;7.47;;;1.85;;
76801;SDS011;66403;50.832;10.950;2024-01-27T11:10:15;6.72;;;1.77;;
76801;SDS011;66403;50.832;10.950;2024-01-27T11:15:16;3.25;;;1.38;;
76801;SDS011;66403;50.832;10.950;2024-01-27T11:20:16;3.42;;;1.45;;
76801;SDS011;66403;50.832;10.950;2024-01-27T11:25:17;4.75;;;1.30;;
76801;SDS011;66403;50.832;10.950;2024-01-27T11:35:28;4.80;;;1.60;;
76801;SDS011;66403;50.832;10.950;2024-01-27T11:40:29;3.40;;;1.10;;
76801;SDS011;66403;50.832;10.950;2024-01-27T11:45:30;3.72;;;1.40;;
76801;SDS011;66403;50.832;10.950;2024-01-27T11:50:30;3.90;;;2.05;;
76801;SDS011;66403;50.832;10.950;2024-01-27T11:55:30;2.40;;;1.33;;
76801;SDS011;66403;50.832;10.950;2024-01-27T12:00:31;4.70;;;1.03;;
76801;SDS011;66403;50.832;10.950;2024-01-27T12:05:31;3.77;;;1.30;;
76801;SDS011;66403;50.832;10.950;2024-01-27T12:10:32;4.70;;;1.40;;
76801;SDS011;66403;50.832;10.950;2024-01-27T12:15:32;3.72;;;1.33;;
76801;SDS011;66403;50.832;10.950;2024-01-27T12:20:33;4.63;;;1.40;;
76801;SDS011;66403;50.832;10.950;2024-01-27T12:25:33;2.97;;;1.33;;
76801;SDS011;66403;50.832;10.950;2024-01-27T12:30:33;2.70;;;1.03;;
76801;SDS011;66403;50.832;10.950;2024-01-27T12:35:34;6.75;;;1.48;;
76801;SDS011;66403;50.832;10.950;2024-01-27T12:40:34;4.90;;;1.20;;
76801;SDS011;66403;50.832;10.950;2024-01-27T12:45:35;4.68;;;1.42;;
76801;SDS011;66403;50.832;10.950;2024-01-27T12:50:35;6.88;;;1.85;;
76801;SDS011;66403;50.832;10.950;2024-01-27T12:55:36;9.57;;;2.63;;
76801;SDS011;66403;50.832;10.950;2024-01-27T13:00:36;4.50;;;1.67;;
76801;SDS011;66403;50.832;10.950;2024-01-27T13:05:36;7.00;;;2.00;;
76801;SDS011;66403;50.832;10.950;2024-01-27T13:10:38;5.55;;;1.85;;
76801;SDS011;66403;50.832;10.950;2024-01-27T13:15:39;4.32;;;1.50;;
76801;SDS011;66403;50.832;10.950;2024-01-27T13:20:39;2.70;;;1.20;;
76801;SDS011;66403;50.832;10.950;2024-01-27T13:25:43;7.45;;;2.08;;
76801;SDS011;66403;50.832;10.950;2024-01-27T13:30:43;9.35;;;1.77;;
76801;SDS011;66403;50.832;10.950;2024-01-27T13:35:44;7.88;;;2.50;;
76801;SDS011;66403;50.832;10.950;2024-01-27T13:40:47;7.07;;;2.03;;
76801;SDS011;66403;50.832;10.950;2024-01-27T13:45:48;8.85;;;2.13;;
76801;SDS011;66403;50.832;10.950;2024-01-27T13:50:48;7.32;;;2.47;;
76801;SDS011;66403;50.832;10.950;2024-01-27T13:55:48;2.57;;;1.30;;
76801;SDS011;66403;50.832;10.950;2024-01-27T14:00:49;5.17;;;2.30;;
76801;SDS011;66403;50.832;10.950;2024-01-27T14:05:49;11.30;;;1.90;;
76801;SDS011;66403;50.832;10.950;2024-01-27T14:10:50;4.20;;;1.73;;
76801;SDS011;66403;50.832;10.950;2024-01-27T14:15:52;4.53;;;1.67;;
76801;SDS011;66403;50.832;10.950;2024-01-27T14:20:53;8.37;;;1.83;;
76801;SDS011;66403;50.832;10.950;2024-01-27T14:25:53;5.63;;;1.97;;
76801;SDS011;66403;50.832;10.950;2024-01-27T14:30:54;3.17;;;1.17;;
76801;SDS011;66403;50.832;10.950;2024-01-27T14:35:54;4.77;;;1.07;;
76801;SDS011;66403;50.832;10.950;2024-01-27T14:40:54;11.03;;;2.40;;
76801;SDS011;66403;50.832;10.950;2024-01-27T14:45:55;8.20;;;2.33;;
76801;SDS011;66403;50.832;10.950;2024-01-27T14:50:56;5.63;;;1.30;;
76801;SDS011;66403;50.832;10.950;2024-01-27T14:55:59;3.20;;;0.90;;
76801;SDS011;66403;50.832;10.950;2024-01-27T15:00:59;3.25;;;1.25;;
76801;SDS011;66403;50.832;10.950;2024-01-27T15:06:00;4.13;;;1.73;;
76801;SDS011;66403;50.832;10.950;2024-01-27T15:11:01;3.63;;;1.58;;
76801;SDS011;66403;50.832;10.950;2024-01-27T15:16:02;4.22;;;1.40;;
76801;SDS011;66403;50.832;10.950;2024-01-27T15:21:03;4.32;;;1.42;;
76801;SDS011;66403;50.832;10.950;2024-01-27T15:26:04;3.63;;;2.00;;
76801;SDS011;66403;50.832;10.950;2024-01-27T15:31:06;5.07;;;2.63;;
76801;SDS011;66403;50.832;10.950;2024-01-27T15:36:07;5.18;;;1.67;;
76801;SDS011;66403;50.832;10.950;2024-01-27T15:41:07;5.43;;;1.83;;
76801;SDS011;66403;50.832;10.950;2024-01-27T15:46:08;9.25;;;2.60;;
76801;SDS011;66403;50.832;10.950;2024-01-27T15:51:10;5.43;;;1.90;;
76801;SDS011;66403;50.832;10.950;2024-01-27T15:56:10;3.45;;;1.38;;
76801;SDS011;66403;50.832;10.950;2024-01-27T16:01:11;6.05;;;2.35;;
76801;SDS011;66403;50.832;10.950;2024-01-27T16:06:11;3.00;;;1.45;;
76801;SDS011;66403;50.832;10.950;2024-01-27T16:11:12;4.50;;;1.42;;
76801;SDS011;66403;50.832;10.950;2024-01-27T16:16:12;6.53;;;2.75;;
76801;SDS011;66403;50.832;10.950;2024-01-27T16:21:13;5.15;;;2.42;;
76801;SDS011;66403;50.832;10.950;2024-01-27T16:26:13;3.70;;;2.90;;
76801;SDS011;66403;50.832;10.950;2024-01-27T16:31:14;7.68;;;2.70;;
76801;SDS011;66403;50.832;10.950;2024-01-27T16:36:14;5.13;;;3.42;;
76801;SDS011;66403;50.832;10.950;2024-01-27T16:41:15;7.53;;;3.92;;
76801;SDS011;66403;50.832;10.950;2024-01-27T16:46:16;13.50;;;3.90;;
76801;SDS011;66403;50.832;10.950;2024-01-27T16:51:16;8.60;;;4.65;;
76801;SDS011;66403;50.832;10.950;2024-01-27T16:56:17;9.02;;;4.22;;
76801;SDS011;66403;50.832;10.950;2024-01-27T17:01:18;7.47;;;3.40;;
76801;SDS011;66403;50.832;10.950;2024-01-27T17:06:18;6.72;;;2.40;;
76801;SDS011;66403;50.832;10.950;2024-01-27T17:11:19;6.30;;;3.20;;
76801;SDS011;66403;50.832;10.950;2024-01-27T17:16:20;7.15;;;2.85;;
76801;SDS011;66403;50.832;10.950;2024-01-27T17:21:20;8.18;;;2.53;;
76801;SDS011;66403;50.832;10.950;2024-01-27T17:26:21;12.18;;;5.57;;
76801;SDS011;66403;50.832;10.950;2024-01-27T17:31:21;7.57;;;4.40;;
76801;SDS011;66403;50.832;10.950;2024-01-27T17:36:22;7.03;;;4.35;;
76801;SDS011;66403;50.832;10.950;2024-01-27T17:41:22;6.40;;;3.97;;
76801;SDS011;66403;50.832;10.950;2024-01-27T17:46:23;8.50;;;3.55;;
76801;SDS011;66403;50.832;10.950;2024-01-27T17:51:24;12.30;;;3.90;;
76801;SDS011;66403;50.832;10.950;2024-01-27T17:56:24;4.85;;;3.35;;
76801;SDS011;66403;50.832;10.950;2024-01-27T18:01:25;5.75;;;3.38;;
76801;SDS011;66403;50.832;10.950;2024-01-27T18:06:25;5.13;;;3.70;;
76801;SDS011;66403;50.832;10.950;2024-01-27T18:11:26;11.25;;;4.70;;
76801;SDS011;66403;50.832;10.950;2024-01-27T18:16:26;9.50;;;5.03;;
76801;SDS011;66403;50.832;10.950;2024-01-27T18:21:27;6.18;;;4.32;;
76801;SDS011;66403;50.832;10.950;2024-01-27T18:26:27;8.63;;;4.20;;
76801;SDS011;66403;50.832;10.950;2024-01-27T18:31:28;8.02;;;4.07;;
76801;SDS011;66403;50.832;10.950;2024-01-27T18:36:28;16.20;;;5.82;;
76801;SDS011;66403;50.832;10.950;2024-01-27T18:41:29;11.50;;;4.60;;
76801;SDS011;66403;50.832;10.950;2024-01-27T18:46:29;7.07;;;4.45;;
76801;SDS011;66403;50.832;10.950;2024-01-27T18:51:30;7.90;;;4.03;;
76801;SDS011;66403;50.832;10.950;2024-01-27T18:56:30;5.95;;;2.85;;
76801;SDS011;66403;50.832;10.950;2024-01-27T19:01:31;6.95;;;2.88;;
76801;SDS011;66403;50.832;10.950;2024-01-27T19:06:31;11.70;;;3.72;;
76801;SDS011;66403;50.832;10.950;2024-01-27T19:11:32;7.85;;;3.75;;
76801;SDS011;66403;50.832;10.950;2024-01-27T19:16:33;8.70;;;3.33;;
76801;SDS011;66403;50.832;10.950;2024-01-27T19:21:33;5.10;;;3.22;;
76801;SDS011;66403;50.832;10.950;2024-01-27T19:26:34;5.50;;;2.80;;
76801;SDS011;66403;50.832;10.950;2024-01-27T19:31:35;5.78;;;3.80;;
76801;SDS011;66403;50.832;10.950;2024-01-27T19:36:36;7.85;;;4.00;;
76801;SDS011;66403;50.832;10.950;2024-01-27T19:41:37;7.35;;;2.67;;
76801;SDS011;66403;50.832;10.950;2024-01-27T19:46:38;6.72;;;3.85;;
76801;SDS011;66403;50.832;10.950;2024-01-27T19:51:42;14.05;;;3.55;;
76801;SDS011;66403;50.832;10.950;2024-01-27T19:56:43;9.63;;;3.50;;
76801;SDS011;66403;50.832;10.950;2024-01-27T20:01:44;7.10;;;4.05;;
76801;SDS011;66403;50.832;10.950;2024-01-27T20:06:44;6.85;;;3.20;;
76801;SDS011;66403;50.832;10.950;2024-01-27T20:11:45;13.82;;;4.22;;
76801;SDS011;66403;50.832;10.950;2024-01-27T20:16:48;8.02;;;4.50;;
76801;SDS011;66403;50.832;10.950;2024-01-27T20:21:49;6.88;;;3.15;;
76801;SDS011;66403;50.832;10.950;2024-01-27T20:26:50;13.60;;;4.68;;
76801;SDS011;66403;50.832;10.950;2024-01-27T20:31:50;9.10;;;3.72;;
76801;SDS011;66403;50.832;10.950;2024-01-27T20:36:51;8.70;;;3.95;;
76801;SDS011;66403;50.832;10.950;2024-01-27T20:41:51;11.18;;;5.65;;
76801;SDS011;66403;50.832;10.950;2024-01-27T20:46:52;9.75;;;5.00;;
76801;SDS011;66403;50.832;10.950;2024-01-27T20:51:52;10.52;;;4.43;;
76801;SDS011;66403;50.832;10.950;2024-01-27T20:56:53;9.90;;;4.13;;
76801;SDS011;66403;50.832;10.950;2024-01-27T21:01:56;9.80;;;3.95;;
76801;SDS011;66403;50.832;10.950;2024-01-27T21:07:02;9.43;;;4.20;;
76801;SDS011;66403;50.832;10.950;2024-01-27T21:12:02;9.43;;;4.80;;
76801;SDS011;66403;50.832;10.950;2024-01-27T21:17:03;7.50;;;4.00;;
76801;SDS011;66403;50.832;10.950;2024-01-27T21:22:04;7.47;;;3.78;;
76801;SDS011;66403;50.832;10.950;2024-01-27T21:27:04;15.43;;;4.97;;
76801;SDS011;66403;50.832;10.950;2024-01-27T21:32:05;7.40;;;4.05;;
76801;SDS011;66403;50.832;10.950;2024-01-27T21:37:05;5.43;;;3.25;;
76801;SDS011;66403;50.832;10.950;2024-01-27T21:42:06;9.63;;;4.13;;
76801;SDS011;66403;50.832;10.950;2024-01-27T21:47:06;5.40;;;4.05;;
76801;SDS011;66403;50.832;10.950;2024-01-27T21:52:07;5.93;;;2.78;;
76801;SDS011;66403;50.832;10.950;2024-01-27T21:57:07;7.32;;;2.53;;
76801;SDS011;66403;50.832;10.950;2024-01-27T22:02:08;7.90;;;3.25;;
76801;SDS011;66403;50.832;10.950;2024-01-27T22:07:08;7.35;;;4.25;;
76801;SDS011;66403;50.832;10.950;2024-01-27T22:12:08;6.18;;;3.03;;
76801;SDS011;66403;50.832;10.950;2024-01-27T22:17:09;5.07;;;3.60;;
76801;SDS011;66403;50.832;10.950;2024-01-27T22:22:09;7.90;;;3.92;;
76801;SDS011;66403;50.832;10.950;2024-01-27T22:27:10;3.55;;;2.33;;
76801;SDS011;66403;50.832;10.950;2024-01-27T22:32:11;6.93;;;3.22;;
76801;SDS011;66403;50.832;10.950;2024-01-27T22:37:11;4.82;;;3.15;;
76801;SDS011;66403;50.832;10.950;2024-01-27T22:42:11;11.05;;;2.92;;
76801;SDS011;66403;50.832;10.950;2024-01-27T22:47:12;8.98;;;3.28;;
76801;SDS011;66403;50.832;10.950;2024-01-27T22:52:12;4.35;;;2.83;;
76801;SDS011;66403;50.832;10.950;2024-01-27T22:57:13;5.80;;;3.72;;
76801;SDS011;66403;50.832;10.950;2024-01-27T23:02:14;5.50;;;2.72;;
76801;SDS011;66403;50.832;10.950;2024-01-27T23:07:15;3.22;;;2.13;;
76801;SDS011;66403;50.832;10.950;2024-01-27T23:12:16;5.85;;;3.22;;
76801;SDS011;66403;50.832;10.950;2024-01-27T23:17:16;6.82;;;3.25;;
76801;SDS011;66403;50.832;10.950;2024-01-27T23:22:17;4.53;;;2.95;;
76801;SDS011;66403;50.832;10.950;2024-01-27T23:27:17;1.85;;;1.40;;
76801;SDS011;66403;50.832;10.950;2024-01-27T23:32:18;10.15;;;3.20;;
76801;SDS011;66403;50.832;10.950;2024-01-27T23:37:19;11.00;;;3.72;;
76801;SDS011;66403;50.832;10.950;2024-01-27T23:42:19;6.85;;;2.72;;
76801;SDS011;66403;50.832;10.950;2024-01-27T23:47:20;6.95;;;2.20;;
76801;SDS011;66403;50.832;10.950;2024-01-27T23:52:20;8.77;;;2.25;;
76801;SDS011;66403;50.832;10.950;2024-01-27T23:57:25;6.88;;;2.97;;
